createdAt,value
2023-02-26T00:01:45.611Z,0.20
2023-02-26T00:04:12.590Z,0.10
2023-02-26T00:06:52.540Z,0.10
2023-02-26T00:09:20.355Z,0.00
2023-02-26T00:11:48.424Z,0.00
2023-02-26T00:14:16.579Z,-0.10
2023-02-26T00:16:47.633Z,-0.10
2023-02-26T00:19:15.012Z,-0.20
2023-02-26T00:21:42.223Z,-0.20
2023-02-26T00:24:09.130Z,-0.20
2023-02-26T00:26:36.155Z,-0.20
2023-02-26T00:29:04.585Z,-0.20
2023-02-26T00:31:31.692Z,-0.20
2023-02-26T00:33:59.156Z,-0.30
2023-02-26T00:36:44.592Z,-0.30
2023-02-26T00:39:29.501Z,-0.30
2023-02-26T00:41:56.725Z,-0.30
2023-02-26T00:44:23.809Z,-0.30
2023-02-26T00:47:08.654Z,-0.40
2023-02-26T00:50:14.280Z,-0.40
2023-02-26T00:53:15.048Z,-0.40
2023-02-26T00:55:41.836Z,-0.40
2023-02-26T00:58:08.679Z,-0.40
2023-02-26T01:00:35.486Z,-0.50
2023-02-26T01:03:03.645Z,-0.50
2023-02-26T01:05:31.070Z,-0.50
2023-02-26T01:08:12.635Z,-0.50
2023-02-26T01:10:40.426Z,-0.60
2023-02-26T01:13:07.991Z,-0.60
2023-02-26T01:15:35.531Z,-0.70
2023-02-26T01:18:09.813Z,-0.70
2023-02-26T01:20:58.900Z,-0.70
2023-02-26T01:23:27.217Z,-0.70
2023-02-26T01:25:58.345Z,-0.70
2023-02-26T01:28:26.671Z,-0.80
2023-02-26T01:30:57.594Z,-0.80
2023-02-26T01:33:40.269Z,-0.80
2023-02-26T01:36:22.401Z,-0.80
2023-02-26T01:38:58.052Z,-0.80
2023-02-26T01:41:46.238Z,-0.90
2023-02-26T01:44:31.966Z,-0.90
2023-02-26T01:47:17.460Z,-0.90
2023-02-26T01:49:45.023Z,-0.90
2023-02-26T01:52:48.890Z,-0.90
2023-02-26T01:55:19.354Z,-0.90
2023-02-26T01:57:46.787Z,-0.90
2023-02-26T02:00:15.698Z,-0.90
2023-02-26T02:02:42.827Z,-0.90
2023-02-26T02:05:21.174Z,-0.90
2023-02-26T02:07:48.170Z,-0.90
2023-02-26T02:10:15.090Z,-0.90
2023-02-26T02:12:57.620Z,-0.90
2023-02-26T02:15:43.249Z,-0.90
2023-02-26T02:18:21.683Z,-0.90
2023-02-26T02:21:06.873Z,-1.00
2023-02-26T02:23:49.952Z,-1.00
2023-02-26T02:26:22.905Z,-1.00
2023-02-26T02:29:07.532Z,-1.00
2023-02-26T02:31:37.540Z,-1.00
2023-02-26T02:34:12.042Z,-1.00
2023-02-26T02:36:57.813Z,-1.10
2023-02-26T02:40:03.182Z,-1.10
2023-02-26T02:42:51.782Z,-1.10
2023-02-26T02:45:25.053Z,-1.10
2023-02-26T02:48:01.297Z,-1.20
2023-02-26T02:50:37.090Z,-1.20
2023-02-26T02:53:15.306Z,-1.20
2023-02-26T02:55:56.229Z,-1.20
2023-02-26T02:58:29.435Z,-1.20
2023-02-26T03:01:02.888Z,-1.20
2023-02-26T03:03:44.809Z,-1.20
2023-02-26T03:06:11.692Z,-1.20
2023-02-26T03:08:41.481Z,-1.20
2023-02-26T03:11:09.073Z,-1.20
2023-02-26T03:13:37.655Z,-1.20
2023-02-26T03:16:16.558Z,-1.20
2023-02-26T03:19:27.703Z,-1.20
2023-02-26T03:22:06.776Z,-1.20
2023-02-26T03:24:45.967Z,-1.20
2023-02-26T03:27:31.127Z,-1.20
2023-02-26T03:30:00.699Z,-1.20
2023-02-26T03:32:30.285Z,-1.20
2023-02-26T03:35:07.594Z,-1.20
2023-02-26T03:37:40.056Z,-1.20
2023-02-26T03:40:13.846Z,-1.20
2023-02-26T03:42:50.182Z,-1.20
2023-02-26T03:45:22.760Z,-1.30
2023-02-26T03:47:57.758Z,-1.30
2023-02-26T03:50:38.786Z,-1.30
2023-02-26T03:53:09.768Z,-1.30
2023-02-26T03:55:44.766Z,-1.30
2023-02-26T03:58:11.626Z,-1.30
2023-02-26T04:00:43.198Z,-1.30
2023-02-26T04:03:17.707Z,-1.30
2023-02-26T04:05:49.348Z,-1.30
2023-02-26T04:08:16.566Z,-1.30
2023-02-26T04:10:56.985Z,-1.30
2023-02-26T04:13:24.395Z,-1.30
2023-02-26T04:15:51.266Z,-1.40
2023-02-26T04:18:18.241Z,-1.30
2023-02-26T04:20:45.093Z,-1.30
2023-02-26T04:23:11.953Z,-1.40
2023-02-26T04:25:38.771Z,-1.40
2023-02-26T04:28:05.587Z,-1.40
2023-02-26T04:30:32.787Z,-1.40
2023-02-26T04:32:59.659Z,-1.40
2023-02-26T04:35:26.494Z,-1.50
2023-02-26T04:37:53.284Z,-1.50
2023-02-26T04:40:20.096Z,-1.50
2023-02-26T04:42:47.558Z,-1.50
2023-02-26T04:45:14.546Z,-1.50
2023-02-26T04:47:41.338Z,-1.60
2023-02-26T04:50:09.087Z,-1.60
2023-02-26T04:52:35.926Z,-1.60
2023-02-26T04:55:02.783Z,-1.60
2023-02-26T04:57:29.592Z,-1.60
2023-02-26T04:59:56.469Z,-1.60
2023-02-26T05:02:23.279Z,-1.60
2023-02-26T05:04:50.493Z,-1.60
2023-02-26T05:07:17.573Z,-1.60
2023-02-26T05:09:44.488Z,-1.60
2023-02-26T05:12:11.313Z,-1.50
2023-02-26T05:14:38.106Z,-1.50
2023-02-26T05:17:04.904Z,-1.50
2023-02-26T05:19:31.713Z,-1.50
2023-02-26T05:21:58.496Z,-1.50
2023-02-26T05:24:25.263Z,-1.40
2023-02-26T05:26:52.142Z,-1.50
2023-02-26T05:29:19.537Z,-1.50
2023-02-26T05:31:46.654Z,-1.50
2023-02-26T05:34:13.632Z,-1.50
2023-02-26T05:36:40.394Z,-1.50
2023-02-26T05:39:07.245Z,-1.50
2023-02-26T05:41:34.094Z,-1.50
2023-02-26T05:44:00.886Z,-1.50
2023-02-26T05:46:28.154Z,-1.50
2023-02-26T05:48:55.239Z,-1.60
2023-02-26T05:51:22.511Z,-1.60
2023-02-26T05:53:49.309Z,-1.60
2023-02-26T05:56:17.826Z,-1.60
2023-02-26T05:58:44.939Z,-1.60
2023-02-26T06:01:11.726Z,-1.60
2023-02-26T06:03:44.005Z,-1.60
2023-02-26T06:06:12.360Z,-1.60
2023-02-26T06:08:39.149Z,-1.60
2023-02-26T06:11:06.413Z,-1.60
2023-02-26T06:13:33.351Z,-1.70
2023-02-26T06:16:00.336Z,-1.70
2023-02-26T06:18:27.206Z,-1.70
2023-02-26T06:20:54.119Z,-1.70
2023-02-26T06:23:21.168Z,-1.70
2023-02-26T06:25:47.985Z,-1.80
2023-02-26T06:28:14.768Z,-1.70
2023-02-26T06:30:41.629Z,-1.70
2023-02-26T06:33:08.491Z,-1.80
2023-02-26T06:35:35.311Z,-1.80
2023-02-26T06:38:02.399Z,-1.80
2023-02-26T06:40:29.358Z,-1.80
2023-02-26T06:42:56.916Z,-1.80
2023-02-26T06:45:25.270Z,-1.80
2023-02-26T06:47:52.224Z,-1.80
2023-02-26T06:50:19.141Z,-1.80
2023-02-26T06:52:45.961Z,-1.80
2023-02-26T06:55:13.454Z,-1.80
2023-02-26T06:57:40.414Z,-1.80
2023-02-26T07:00:09.792Z,-1.80
2023-02-26T07:02:36.993Z,-1.70
2023-02-26T07:05:04.033Z,-1.70
2023-02-26T07:07:30.894Z,-1.70
2023-02-26T07:09:57.699Z,-1.70
2023-02-26T07:12:24.623Z,-1.60
2023-02-26T07:14:51.454Z,-1.60
2023-02-26T07:17:20.983Z,-1.50
2023-02-26T07:19:49.372Z,-1.50
2023-02-26T07:22:16.776Z,-1.50
2023-02-26T07:24:44.115Z,-1.40
2023-02-26T07:27:11.400Z,-1.30
2023-02-26T07:29:38.792Z,-1.30
2023-02-26T07:32:06.128Z,-1.30
2023-02-26T07:34:33.338Z,-1.20
2023-02-26T07:37:00.274Z,-1.10
2023-02-26T07:39:27.465Z,-1.00
2023-02-26T07:41:54.728Z,-1.00
2023-02-26T07:44:21.583Z,-0.90
2023-02-26T07:46:48.436Z,-0.90
2023-02-26T07:49:15.433Z,-0.90
2023-02-26T07:51:45.855Z,-0.90
2023-02-26T07:54:15.949Z,-0.90
2023-02-26T07:56:45.453Z,-0.80
2023-02-26T07:59:12.630Z,-0.80
2023-02-26T08:01:39.520Z,-0.80
2023-02-26T08:04:06.496Z,-0.70
2023-02-26T08:06:33.430Z,-0.70
2023-02-26T08:09:00.559Z,-0.60
2023-02-26T08:11:27.695Z,-0.50
2023-02-26T08:13:54.516Z,-0.50
2023-02-26T08:16:21.402Z,-0.40
2023-02-26T08:18:48.174Z,-0.30
2023-02-26T08:21:15.061Z,-0.30
2023-02-26T08:23:41.854Z,-0.20
2023-02-26T08:26:10.596Z,-0.10
2023-02-26T08:28:37.561Z,-0.10
2023-02-26T08:31:04.671Z,0.00
2023-02-26T08:33:32.411Z,0.00
2023-02-26T08:36:01.683Z,0.00
2023-02-26T08:38:29.953Z,0.00
2023-02-26T08:40:57.351Z,0.10
2023-02-26T08:43:24.439Z,0.10
2023-02-26T08:45:55.896Z,0.20
2023-02-26T08:48:23.921Z,0.20
2023-02-26T08:50:50.888Z,0.20
2023-02-26T08:53:18.030Z,0.30
2023-02-26T08:55:52.938Z,0.30
2023-02-26T08:58:20.264Z,0.40
2023-02-26T09:00:47.802Z,0.40
2023-02-26T09:03:15.100Z,0.50
2023-02-26T09:05:42.888Z,0.50
2023-02-26T09:08:11.440Z,0.60
2023-02-26T09:10:40.213Z,0.60
2023-02-26T09:13:08.433Z,0.70
2023-02-26T09:15:35.388Z,0.70
2023-02-26T09:18:05.924Z,0.80
2023-02-26T09:20:33.234Z,0.90
2023-02-26T09:23:00.114Z,1.00
2023-02-26T09:25:26.937Z,1.00
2023-02-26T09:27:53.877Z,1.10
2023-02-26T09:30:20.884Z,1.20
2023-02-26T09:32:47.757Z,1.30
2023-02-26T09:35:20.603Z,1.40
2023-02-26T09:37:47.512Z,1.50
2023-02-26T09:40:42.287Z,1.50
2023-02-26T09:43:22.856Z,1.60
2023-02-26T09:46:16.265Z,1.70
2023-02-26T09:48:45.384Z,1.80
2023-02-26T09:51:19.420Z,1.80
2023-02-26T09:53:49.094Z,1.90
2023-02-26T09:56:25.153Z,2.00
2023-02-26T09:58:55.815Z,2.10
2023-02-26T10:01:43.718Z,2.20
2023-02-26T10:04:42.585Z,2.20
2023-02-26T10:07:23.015Z,2.40
2023-02-26T10:10:02.786Z,2.50
2023-02-26T10:12:33.942Z,2.60
2023-02-26T10:15:13.532Z,2.60
2023-02-26T10:18:02.200Z,2.70
2023-02-26T10:20:55.620Z,2.90
2023-02-26T10:23:37.657Z,3.00
2023-02-26T10:26:17.606Z,3.10
2023-02-26T10:29:02.440Z,3.30
2023-02-26T10:31:57.218Z,3.40
2023-02-26T10:34:38.226Z,3.50
2023-02-26T10:37:14.374Z,3.70
2023-02-26T10:39:47.469Z,3.80
2023-02-26T10:42:23.399Z,4.00
2023-02-26T10:45:02.518Z,4.20
2023-02-26T10:47:56.558Z,4.40
2023-02-26T10:50:24.473Z,4.60
2023-02-26T10:52:52.076Z,4.70
2023-02-26T10:55:34.470Z,4.90
2023-02-26T10:58:11.286Z,5.00
2023-02-26T11:00:40.986Z,5.10
2023-02-26T11:03:13.646Z,5.20
2023-02-26T11:05:41.437Z,5.30
2023-02-26T11:08:39.588Z,5.50
2023-02-26T11:11:07.573Z,5.70
2023-02-26T11:13:36.907Z,6.00
2023-02-26T11:16:11.394Z,6.30
2023-02-26T11:18:43.861Z,6.60
2023-02-26T11:21:18.295Z,6.90
2023-02-26T11:23:47.359Z,7.20
2023-02-26T11:26:19.799Z,7.50
2023-02-26T11:28:49.361Z,8.00
2023-02-26T11:31:19.338Z,8.40
2023-02-26T11:33:55.728Z,8.90
2023-02-26T11:36:28.347Z,9.60
2023-02-26T11:39:09.277Z,10.40
2023-02-26T11:41:38.855Z,11.20
2023-02-26T11:44:11.443Z,11.30
2023-02-26T11:46:45.117Z,11.70
2023-02-26T11:49:18.244Z,12.60
2023-02-26T11:51:47.500Z,13.50
2023-02-26T11:54:23.731Z,14.10
2023-02-26T11:56:50.787Z,13.90
2023-02-26T11:59:23.070Z,14.10
2023-02-26T12:01:51.346Z,14.70
2023-02-26T12:04:27.473Z,15.60
2023-02-26T12:06:57.219Z,16.60
2023-02-26T12:09:26.001Z,17.50
2023-02-26T12:12:20.692Z,18.20
2023-02-26T12:15:12.990Z,18.80
2023-02-26T12:17:39.851Z,19.50
2023-02-26T12:20:56.333Z,20.00
2023-02-26T12:23:40.909Z,20.50
2023-02-26T12:26:28.347Z,20.60
2023-02-26T12:28:55.420Z,20.70
2023-02-26T12:31:41.168Z,20.70
2023-02-26T12:34:17.484Z,20.50
2023-02-26T12:36:49.322Z,20.30
2023-02-26T12:39:39.075Z,20.10
2023-02-26T12:42:44.345Z,20.00
2023-02-26T12:45:11.184Z,20.20
2023-02-26T12:47:52.434Z,20.20
2023-02-26T12:50:43.627Z,20.40
2023-02-26T12:53:29.592Z,20.60
2023-02-26T12:56:14.911Z,19.90
2023-02-26T12:58:52.466Z,18.00
2023-02-26T13:02:01.457Z,16.10
2023-02-26T13:05:06.161Z,14.50
2023-02-26T13:08:11.464Z,13.20
2023-02-26T13:10:47.838Z,12.40
2023-02-26T13:13:46.008Z,12.00
2023-02-26T13:16:28.920Z,12.50
2023-02-26T13:19:04.881Z,13.50
2023-02-26T13:21:40.795Z,14.40
2023-02-26T13:24:56.468Z,15.30
2023-02-26T13:27:25.803Z,16.10
2023-02-26T13:30:20.138Z,16.60
2023-02-26T13:32:50.485Z,17.00
2023-02-26T13:35:34.889Z,17.20
2023-02-26T13:38:07.433Z,17.30
2023-02-26T13:40:46.715Z,17.40
2023-02-26T13:43:25.463Z,17.50
2023-02-26T13:46:04.314Z,17.30
2023-02-26T13:48:52.153Z,17.00
2023-02-26T13:51:46.738Z,16.70
2023-02-26T13:54:17.486Z,16.20
2023-02-26T13:56:49.034Z,15.70
2023-02-26T13:59:20.156Z,15.10
2023-02-26T14:01:49.903Z,14.40
2023-02-26T14:04:23.196Z,13.50
2023-02-26T14:07:05.724Z,12.80
2023-02-26T14:09:44.708Z,12.30
2023-02-26T14:12:15.759Z,11.90
2023-02-26T14:14:43.677Z,11.40
2023-02-26T14:17:10.481Z,11.00
2023-02-26T14:19:52.700Z,10.60
2023-02-26T14:22:25.878Z,10.20
2023-02-26T14:24:54.583Z,10.00
2023-02-26T14:27:23.343Z,9.70
2023-02-26T14:30:01.516Z,9.30
2023-02-26T14:32:47.122Z,9.00
2023-02-26T14:35:26.300Z,8.70
2023-02-26T14:38:03.130Z,8.50
2023-02-26T14:40:39.361Z,8.30
2023-02-26T14:43:08.511Z,8.20
2023-02-26T14:45:41.465Z,8.10
2023-02-26T14:48:14.656Z,8.00
2023-02-26T14:50:53.480Z,7.90
2023-02-26T14:53:52.397Z,7.80
2023-02-26T14:56:47.461Z,7.70
2023-02-26T14:59:20.039Z,7.50
2023-02-26T15:02:02.270Z,7.30
2023-02-26T15:04:38.249Z,7.10
2023-02-26T15:07:37.763Z,7.00
2023-02-26T15:10:13.981Z,7.00
2023-02-26T15:13:05.462Z,7.00
2023-02-26T15:15:59.981Z,7.00
2023-02-26T15:18:43.493Z,6.80
2023-02-26T15:21:17.989Z,6.70
2023-02-26T15:23:54.590Z,6.40
2023-02-26T15:26:26.616Z,6.30
2023-02-26T15:28:54.757Z,6.10
2023-02-26T15:31:33.263Z,5.90
2023-02-26T15:34:01.816Z,5.70
2023-02-26T15:36:30.862Z,5.60
2023-02-26T15:39:00.309Z,5.50
2023-02-26T15:41:29.765Z,5.40
2023-02-26T15:44:00.866Z,5.30
2023-02-26T15:46:32.531Z,5.20
2023-02-26T15:49:10.508Z,5.10
2023-02-26T15:51:37.889Z,5.00
2023-02-26T15:54:05.756Z,4.90
2023-02-26T15:56:39.471Z,4.80
2023-02-26T16:02:33.312Z,4.70
2023-02-26T16:05:04.724Z,4.60
2023-02-26T16:07:35.485Z,4.50
2023-02-26T16:10:14.808Z,4.40
2023-02-26T16:12:44.911Z,4.40
2023-02-26T16:15:16.461Z,4.30
2023-02-26T16:17:46.023Z,4.20
2023-02-26T16:20:20.130Z,4.10
2023-02-26T16:22:51.252Z,4.00
2023-02-26T16:25:25.235Z,3.90
2023-02-26T16:28:05.253Z,3.80
2023-02-26T16:30:35.972Z,3.70
2023-02-26T16:33:04.375Z,3.70
2023-02-26T16:35:39.318Z,3.60
2023-02-26T16:38:23.983Z,3.60
2023-02-26T16:41:11.234Z,3.50
2023-02-26T16:43:49.924Z,3.40
2023-02-26T16:46:24.566Z,3.40
2023-02-26T16:49:01.676Z,3.30
2023-02-26T16:51:31.139Z,3.30
2023-02-26T16:54:07.493Z,3.20
2023-02-26T16:56:46.067Z,3.10
2023-02-26T16:59:16.959Z,3.10
2023-02-26T17:02:04.793Z,3.10
2023-02-26T17:04:38.130Z,3.00
2023-02-26T17:07:46.501Z,3.00
2023-02-26T17:10:40.234Z,3.00
2023-02-26T17:13:16.323Z,2.90
2023-02-26T17:15:46.479Z,2.80
2023-02-26T17:18:14.224Z,2.80
2023-02-26T17:20:41.417Z,2.70
2023-02-26T17:23:09.390Z,2.60
2023-02-26T17:25:44.080Z,2.60
2023-02-26T17:28:20.723Z,2.50
2023-02-26T17:30:47.651Z,2.50
2023-02-26T17:33:14.791Z,2.50
2023-02-26T17:35:43.102Z,2.40
2023-02-26T17:38:13.250Z,2.50
2023-02-26T17:40:41.712Z,2.50
2023-02-26T17:43:09.969Z,2.50
2023-02-26T17:45:40.167Z,2.50
2023-02-26T17:48:09.513Z,2.50
2023-02-26T17:50:49.938Z,2.50
2023-02-26T17:53:18.788Z,2.50
2023-02-26T17:55:47.542Z,2.50
2023-02-26T17:58:34.938Z,2.50
2023-02-26T18:01:04.059Z,2.50
2023-02-26T18:03:31.314Z,2.50
2023-02-26T18:05:58.605Z,2.60
2023-02-26T18:08:34.573Z,2.60
2023-02-26T18:11:27.638Z,2.70
2023-02-26T18:13:55.417Z,2.70
2023-02-26T18:16:28.979Z,2.70
2023-02-26T18:18:55.841Z,2.80
2023-02-26T18:21:23.063Z,2.80
2023-02-26T18:23:49.978Z,2.80
2023-02-26T18:26:19.395Z,2.80
2023-02-26T18:28:46.235Z,2.70
2023-02-26T18:31:13.871Z,2.80
2023-02-26T18:33:41.602Z,2.80
2023-02-26T18:36:23.046Z,2.80
2023-02-26T18:38:50.345Z,2.80
2023-02-26T18:41:17.216Z,2.80
2023-02-26T18:43:44.144Z,2.70
2023-02-26T18:46:12.558Z,2.80
2023-02-26T18:48:40.150Z,2.80
2023-02-26T18:51:06.976Z,2.70
2023-02-26T18:53:35.313Z,2.80
2023-02-26T18:56:02.335Z,2.80
2023-02-26T18:58:29.316Z,2.80
2023-02-26T19:00:57.099Z,2.80
2023-02-26T19:03:24.428Z,2.80
2023-02-26T19:06:05.525Z,2.80
2023-02-26T19:08:32.565Z,2.80
2023-02-26T19:10:59.789Z,2.80
2023-02-26T19:13:27.126Z,2.80
2023-02-26T19:15:54.108Z,2.80
2023-02-26T19:18:21.362Z,2.80
2023-02-26T19:20:48.477Z,2.80
2023-02-26T19:23:15.639Z,2.80
2023-02-26T19:25:42.950Z,2.80
2023-02-26T19:28:10.174Z,2.80
2023-02-26T19:30:39.757Z,2.80
2023-02-26T19:33:07.402Z,2.80
2023-02-26T19:35:34.680Z,2.80
2023-02-26T19:38:01.599Z,2.80
2023-02-26T19:40:29.608Z,2.80
2023-02-26T19:42:57.024Z,2.80
2023-02-26T19:45:23.951Z,2.80
2023-02-26T19:47:50.812Z,2.80
2023-02-26T19:50:19.527Z,2.80
2023-02-26T19:52:46.498Z,2.80
2023-02-26T19:55:16.928Z,2.80
2023-02-26T19:57:43.877Z,2.80
2023-02-26T20:00:12.661Z,2.80
2023-02-26T20:02:40.319Z,2.80
2023-02-26T20:05:08.041Z,2.80
2023-02-26T20:07:34.996Z,2.80
2023-02-26T20:10:02.319Z,2.80
2023-02-26T20:12:30.359Z,2.80
2023-02-26T20:14:57.692Z,2.80
2023-02-26T20:17:25.071Z,2.80
2023-02-26T20:19:51.984Z,2.80
2023-02-26T20:22:21.197Z,2.80
2023-02-26T20:24:48.182Z,2.80
2023-02-26T20:27:15.515Z,2.80
2023-02-26T20:29:42.319Z,2.80
2023-02-26T20:32:09.431Z,2.80
2023-02-26T20:34:36.449Z,2.80
2023-02-26T20:37:03.525Z,2.80
2023-02-26T20:39:31.242Z,2.80
2023-02-26T20:41:58.204Z,2.80
2023-02-26T20:44:25.218Z,2.80
2023-02-26T20:46:52.654Z,2.80
2023-02-26T20:49:19.641Z,2.80
2023-02-26T20:51:46.852Z,2.80
2023-02-26T20:54:14.773Z,2.80
2023-02-26T20:56:41.814Z,2.70
2023-02-26T20:59:09.592Z,2.80
2023-02-26T21:01:36.580Z,2.80
2023-02-26T21:04:07.026Z,2.80
2023-02-26T21:06:34.583Z,2.80
2023-02-26T21:09:01.972Z,2.80
2023-02-26T21:11:35.235Z,2.80
2023-02-26T21:14:05.330Z,2.70
2023-02-26T21:16:32.310Z,2.70
2023-02-26T21:19:02.701Z,2.70
2023-02-26T21:21:30.669Z,2.70
2023-02-26T21:23:57.824Z,2.70
2023-02-26T21:26:24.879Z,2.60
2023-02-26T21:28:51.726Z,2.60
2023-02-26T21:31:20.143Z,2.50
2023-02-26T21:33:47.103Z,2.50
2023-02-26T21:36:14.536Z,2.40
2023-02-26T21:38:42.285Z,2.40
2023-02-26T21:41:09.226Z,2.30
2023-02-26T21:43:36.286Z,2.40
2023-02-26T21:46:04.216Z,2.30
2023-02-26T21:48:31.113Z,2.30
2023-02-26T21:50:59.698Z,2.20
2023-02-26T21:53:27.463Z,2.10
2023-02-26T21:55:55.508Z,2.00
2023-02-26T21:58:22.500Z,2.00
2023-02-26T22:00:49.515Z,1.90
2023-02-26T22:03:16.464Z,1.80
2023-02-26T22:05:43.844Z,1.60
2023-02-26T22:08:10.780Z,1.50
2023-02-26T22:10:37.655Z,1.40
2023-02-26T22:13:04.446Z,1.30
2023-02-26T22:15:31.248Z,1.30
2023-02-26T22:17:58.048Z,1.20
2023-02-26T22:20:25.030Z,1.20
2023-02-26T22:22:51.917Z,1.20
2023-02-26T22:25:18.963Z,1.20
2023-02-26T22:27:45.780Z,1.10
2023-02-26T22:30:12.966Z,1.10
2023-02-26T22:32:40.155Z,1.00
2023-02-26T22:35:07.989Z,0.90
2023-02-26T22:37:35.619Z,0.90
2023-02-26T22:40:03.875Z,0.80
2023-02-26T22:42:31.061Z,0.80
2023-02-26T22:44:58.026Z,0.70
2023-02-26T22:47:24.942Z,0.70
2023-02-26T22:49:51.734Z,0.60
2023-02-26T22:52:18.575Z,0.60
2023-02-26T22:54:46.428Z,0.60
2023-02-26T22:57:13.805Z,0.50
2023-02-26T22:59:40.604Z,0.50
2023-02-26T23:02:07.404Z,0.50
2023-02-26T23:04:34.364Z,0.50
2023-02-26T23:07:01.249Z,0.40
2023-02-26T23:57:51.829Z,-0.60
